Donnan, Iowa
Current Conditions -  °F | °C
As of 11:15 PM on Friday 24 Oct 2014 (Local Time) from KOLZ Reporting Station
Moderate Fog Moderate Fog  
Wind Chill: 59°   Ceiling: 200
Heat Index: 59°   Visibility: 0mi
Dew Point: 59°   Wind: 8mph
Humidity: 100%   Direction: 230°SW
Pressure: 29.94"   Gusts: NA
Location:  42.8663°N, 91.8396°W
Report Text: KOLZ 250415Z AUTO 23007KT M1/4SM FG OVC002 15/15 A2994 RMK AO2
Loading
Personal Weather Stations






























Interactive Weather Map
Tropical Storm Tracking
New forecast layout! Learn more

10-Day Weather Forecast

Advertisements
Track Severe Weather on mobile